sensor_id;sensor_type;location;lat;lon;timestamp;pressure;altitude;pressure_sealevel;temperature;humidity
7480;BME280;3781;42.272;22.658;2023-02-13T00:01:49;96270.78;;;-1.82;100.00
7480;BME280;3781;42.272;22.658;2023-02-13T00:04:16;96272.22;;;-1.63;100.00
7480;BME280;3781;42.272;22.658;2023-02-13T00:06:42;96269.47;;;-1.49;100.00
7480;BME280;3781;42.272;22.658;2023-02-13T00:09:12;96252.56;;;-1.54;100.00
7480;BME280;3781;42.272;22.658;2023-02-13T00:11:39;96267.69;;;-1.41;100.00
7480;BME280;3781;42.272;22.658;2023-02-13T00:14:06;96273.72;;;-1.48;100.00
7480;BME280;3781;42.272;22.658;2023-02-13T00:16:34;96269.44;;;-1.46;100.00
7480;BME280;3781;42.272;22.658;2023-02-13T00:19:01;96276.13;;;-1.39;100.00
7480;BME280;3781;42.272;22.658;2023-02-13T00:21:28;96244.44;;;-1.80;100.00
7480;BME280;3781;42.272;22.658;2023-02-13T00:23:54;96285.25;;;-1.83;100.00
7480;BME280;3781;42.272;22.658;2023-02-13T00:26:21;96279.38;;;-1.91;100.00
7480;BME280;3781;42.272;22.658;2023-02-13T00:28:48;96276.97;;;-2.01;100.00
7480;BME280;3781;42.272;22.658;2023-02-13T00:31:17;96275.38;;;-2.10;100.00
7480;BME280;3781;42.272;22.658;2023-02-13T00:33:46;96282.09;;;-2.03;100.00
7480;BME280;3781;42.272;22.658;2023-02-13T00:36:15;96269.22;;;-1.92;100.00
7480;BME280;3781;42.272;22.658;2023-02-13T00:38:42;96271.72;;;-1.88;100.00
7480;BME280;3781;42.272;22.658;2023-02-13T00:41:10;96275.91;;;-1.84;100.00
7480;BME280;3781;42.272;22.658;2023-02-13T00:43:37;96280.00;;;-1.74;100.00
7480;BME280;3781;42.272;22.658;2023-02-13T00:46:04;96276.50;;;-1.64;100.00
7480;BME280;3781;42.272;22.658;2023-02-13T00:48:33;96257.88;;;-1.69;100.00
7480;BME280;3781;42.272;22.658;2023-02-13T00:51:02;96274.56;;;-1.49;100.00
7480;BME280;3781;42.272;22.658;2023-02-13T00:53:29;96256.03;;;-1.61;100.00
7480;BME280;3781;42.272;22.658;2023-02-13T00:55:56;96234.31;;;-1.83;100.00
7480;BME280;3781;42.272;22.658;2023-02-13T00:58:23;96276.59;;;-1.73;100.00
7480;BME280;3781;42.272;22.658;2023-02-13T01:00:50;96276.72;;;-1.82;100.00
7480;BME280;3781;42.272;22.658;2023-02-13T01:03:18;96283.53;;;-1.84;100.00
7480;BME280;3781;42.272;22.658;2023-02-13T01:05:46;96285.28;;;-1.86;100.00
7480;BME280;3781;42.272;22.658;2023-02-13T01:08:16;96271.72;;;-1.88;100.00
7480;BME280;3781;42.272;22.658;2023-02-13T01:10:44;96273.34;;;-1.84;100.00
7480;BME280;3781;42.272;22.658;2023-02-13T01:13:11;96275.09;;;-1.86;100.00
7480;BME280;3781;42.272;22.658;2023-02-13T01:15:39;96268.28;;;-1.84;100.00
7480;BME280;3781;42.272;22.658;2023-02-13T01:18:06;96279.31;;;-1.83;100.00
7480;BME280;3781;42.272;22.658;2023-02-13T01:20:33;96277.47;;;-1.72;100.00
7480;BME280;3781;42.272;22.658;2023-02-13T01:23:00;96280.63;;;-1.58;100.00
7480;BME280;3781;42.272;22.658;2023-02-13T01:25:28;96283.13;;;-1.54;100.00
7480;BME280;3781;42.272;22.658;2023-02-13T01:27:54;96289.72;;;-1.40;100.00
7480;BME280;3781;42.272;22.658;2023-02-13T01:30:21;96289.69;;;-1.37;100.00
7480;BME280;3781;42.272;22.658;2023-02-13T01:32:48;96282.75;;;-1.26;100.00
7480;BME280;3781;42.272;22.658;2023-02-13T01:35:15;96286.91;;;-1.24;100.00
7480;BME280;3781;42.272;22.658;2023-02-13T01:37:42;96287.09;;;-1.33;100.00
7480;BME280;3781;42.272;22.658;2023-02-13T01:40:12;96278.88;;;-1.53;100.00
7480;BME280;3781;42.272;22.658;2023-02-13T01:42:40;96284.28;;;-1.74;100.00
7480;BME280;3781;42.272;22.658;2023-02-13T01:45:19;96293.91;;;-1.96;100.00
7480;BME280;3781;42.272;22.658;2023-02-13T01:47:50;96266.31;;;-2.31;100.00
7480;BME280;3781;42.272;22.658;2023-02-13T01:50:21;96277.13;;;-2.15;100.00
7480;BME280;3781;42.272;22.658;2023-02-13T01:52:50;96269.72;;;-2.32;100.00
7480;BME280;3781;42.272;22.658;2023-02-13T01:55:18;96291.72;;;-2.28;100.00
7480;BME280;3781;42.272;22.658;2023-02-13T01:57:50;96289.13;;;-2.26;100.00
7480;BME280;3781;42.272;22.658;2023-02-13T02:00:19;96291.66;;;-2.23;100.00
7480;BME280;3781;42.272;22.658;2023-02-13T02:02:50;96290.59;;;-2.04;100.00
7480;BME280;3781;42.272;22.658;2023-02-13T02:05:18;96288.06;;;-2.05;100.00
7480;BME280;3781;42.272;22.658;2023-02-13T02:07:45;96260.50;;;-2.40;100.00
7480;BME280;3781;42.272;22.658;2023-02-13T02:10:15;96269.84;;;-2.45;100.00
7480;BME280;3781;42.272;22.658;2023-02-13T02:12:48;96289.47;;;-1.85;100.00
7480;BME280;3781;42.272;22.658;2023-02-13T02:15:16;96292.47;;;-1.54;100.00
7480;BME280;3781;42.272;22.658;2023-02-13T02:17:43;96287.13;;;-1.36;100.00
7480;BME280;3781;42.272;22.658;2023-02-13T02:20:23;96275.16;;;-1.31;100.00
7480;BME280;3781;42.272;22.658;2023-02-13T02:23:15;96282.16;;;-1.45;100.00
7480;BME280;3781;42.272;22.658;2023-02-13T02:26:13;96286.03;;;-1.79;100.00
7480;BME280;3781;42.272;22.658;2023-02-13T02:29:10;96290.69;;;-2.13;100.00
7480;BME280;3781;42.272;22.658;2023-02-13T02:34:57;96309.38;;;-2.14;100.00
7480;BME280;3781;42.272;22.658;2023-02-13T02:37:40;96312.94;;;-2.28;100.00
7480;BME280;3781;42.272;22.658;2023-02-13T02:40:18;96322.50;;;-2.50;100.00
7480;BME280;3781;42.272;22.658;2023-02-13T02:42:59;96309.19;;;-2.76;100.00
7480;BME280;3781;42.272;22.658;2023-02-13T02:45:37;96328.72;;;-2.84;100.00
7480;BME280;3781;42.272;22.658;2023-02-13T02:48:09;96335.50;;;-2.83;100.00
7480;BME280;3781;42.272;22.658;2023-02-13T02:51:02;96338.03;;;-2.82;100.00
7480;BME280;3781;42.272;22.658;2023-02-13T02:53:37;96335.63;;;-2.97;100.00
7480;BME280;3781;42.272;22.658;2023-02-13T02:56:10;96340.72;;;-3.01;100.00
7480;BME280;3781;42.272;22.658;2023-02-13T02:58:43;96335.59;;;-2.92;100.00
7480;BME280;3781;42.272;22.658;2023-02-13T03:01:31;96335.53;;;-2.86;100.00
7480;BME280;3781;42.272;22.658;2023-02-13T03:04:21;96336.44;;;-2.93;100.00
7480;BME280;3781;42.272;22.658;2023-02-13T03:07:19;96339.13;;;-3.12;100.00
7480;BME280;3781;42.272;22.658;2023-02-13T03:09:48;96332.09;;;-2.82;100.00
7480;BME280;3781;42.272;22.658;2023-02-13T03:12:37;96337.44;;;-3.13;100.00
7480;BME280;3781;42.272;22.658;2023-02-13T03:15:24;96340.47;;;-2.71;100.00
7480;BME280;3781;42.272;22.658;2023-02-13T03:17:53;96335.94;;;-2.41;100.00
7480;BME280;3781;42.272;22.658;2023-02-13T03:20:54;96334.91;;;-2.20;100.00
7480;BME280;3781;42.272;22.658;2023-02-13T03:23:48;96324.81;;;-2.29;100.00
7480;BME280;3781;42.272;22.658;2023-02-13T03:26:31;96337.41;;;-2.18;100.00
7480;BME280;3781;42.272;22.658;2023-02-13T03:29:25;96339.09;;;-2.17;100.00
7480;BME280;3781;42.272;22.658;2023-02-13T03:32:18;96339.38;;;-2.42;100.00
7480;BME280;3781;42.272;22.658;2023-02-13T03:34:53;96337.78;;;-2.53;100.00
7480;BME280;3781;42.272;22.658;2023-02-13T03:37:43;96327.06;;;-2.85;100.00
7480;BME280;3781;42.272;22.658;2023-02-13T03:40:26;96327.91;;;-2.88;100.00
7480;BME280;3781;42.272;22.658;2023-02-13T03:43:02;96344.91;;;-2.93;100.00
7480;BME280;3781;42.272;22.658;2023-02-13T03:45:35;96341.59;;;-3.04;100.00
7480;BME280;3781;42.272;22.658;2023-02-13T03:48:23;96358.59;;;-3.09;100.00
7480;BME280;3781;42.272;22.658;2023-02-13T03:51:11;96370.50;;;-3.22;100.00
7480;BME280;3781;42.272;22.658;2023-02-13T03:53:41;96351.16;;;-3.38;100.00
7480;BME280;3781;42.272;22.658;2023-02-13T03:56:12;96359.66;;;-3.45;100.00
7480;BME280;3781;42.272;22.658;2023-02-13T03:58:58;96374.94;;;-3.51;100.00
7480;BME280;3781;42.272;22.658;2023-02-13T04:01:45;96357.31;;;-3.79;100.00
7480;BME280;3781;42.272;22.658;2023-02-13T04:04:20;96349.75;;;-3.99;100.00
7480;BME280;3781;42.272;22.658;2023-02-13T04:06:51;96375.97;;;-3.93;100.00
7480;BME280;3781;42.272;22.658;2023-02-13T04:09:21;96380.22;;;-4.02;100.00
7480;BME280;3781;42.272;22.658;2023-02-13T04:11:53;96381.13;;;-4.21;100.00
7480;BME280;3781;42.272;22.658;2023-02-13T04:14:24;96379.47;;;-4.33;100.00
7480;BME280;3781;42.272;22.658;2023-02-13T04:16:55;96381.16;;;-4.33;100.00
7480;BME280;3781;42.272;22.658;2023-02-13T04:19:24;96388.78;;;-4.33;100.00
7480;BME280;3781;42.272;22.658;2023-02-13T04:21:54;96392.16;;;-4.37;100.00
7480;BME280;3781;42.272;22.658;2023-02-13T04:24:22;96359.22;;;-4.54;100.00
7480;BME280;3781;42.272;22.658;2023-02-13T04:26:51;96387.94;;;-4.44;100.00
7480;BME280;3781;42.272;22.658;2023-02-13T04:29:20;96370.16;;;-4.41;100.00
7480;BME280;3781;42.272;22.658;2023-02-13T04:31:47;96383.72;;;-4.42;100.00
7480;BME280;3781;42.272;22.658;2023-02-13T04:34:14;96378.59;;;-4.35;100.00
7480;BME280;3781;42.272;22.658;2023-02-13T04:36:41;96344.03;;;-4.52;100.00
7480;BME280;3781;42.272;22.658;2023-02-13T04:39:08;96371.81;;;-4.13;100.00
7480;BME280;3781;42.272;22.658;2023-02-13T04:41:35;96373.50;;;-4.09;100.00
7480;BME280;3781;42.272;22.658;2023-02-13T04:44:03;96375.25;;;-4.26;100.00
7480;BME280;3781;42.272;22.658;2023-02-13T04:46:30;96382.00;;;-4.30;100.00
7480;BME280;3781;42.272;22.658;2023-02-13T04:48:57;96377.72;;;-4.13;100.00
7480;BME280;3781;42.272;22.658;2023-02-13T04:51:23;96354.06;;;-4.13;100.00
7480;BME280;3781;42.272;22.658;2023-02-13T04:53:50;96383.59;;;-3.97;100.00
7480;BME280;3781;42.272;22.658;2023-02-13T04:56:17;96369.25;;;-4.09;100.00
7480;BME280;3781;42.272;22.658;2023-02-13T04:58:44;96380.25;;;-4.08;100.00
7480;BME280;3781;42.272;22.658;2023-02-13T05:01:12;96382.75;;;-3.98;100.00
7480;BME280;3781;42.272;22.658;2023-02-13T05:03:40;96376.81;;;-3.95;100.00
7480;BME280;3781;42.272;22.658;2023-02-13T05:06:06;96378.50;;;-3.96;100.00
7480;BME280;3781;42.272;22.658;2023-02-13T05:08:33;96375.97;;;-3.96;100.00
7480;BME280;3781;42.272;22.658;2023-02-13T05:11:00;96386.94;;;-3.89;100.00
7480;BME280;3781;42.272;22.658;2023-02-13T05:13:27;96344.75;;;-4.14;100.00
7480;BME280;3781;42.272;22.658;2023-02-13T05:15:54;96385.38;;;-4.37;100.00
7480;BME280;3781;42.272;22.658;2023-02-13T05:18:22;96371.06;;;-4.61;100.00
7480;BME280;3781;42.272;22.658;2023-02-13T05:20:49;96380.38;;;-4.75;100.00
7480;BME280;3781;42.272;22.658;2023-02-13T05:23:29;96373.59;;;-5.06;100.00
7480;BME280;3781;42.272;22.658;2023-02-13T05:25:56;96390.47;;;-4.53;100.00
7480;BME280;3781;42.272;22.658;2023-02-13T05:28:23;96395.53;;;-4.47;100.00
7480;BME280;3781;42.272;22.658;2023-02-13T05:31:07;96395.56;;;-4.53;100.00
7480;BME280;3781;42.272;22.658;2023-02-13T05:33:35;96407.41;;;-4.62;100.00
7480;BME280;3781;42.272;22.658;2023-02-13T05:36:02;96410.78;;;-4.66;100.00
7480;BME280;3781;42.272;22.658;2023-02-13T05:38:28;96411.63;;;-4.68;100.00
7480;BME280;3781;42.272;22.658;2023-02-13T05:40:57;96411.63;;;-4.67;100.00
7480;BME280;3781;42.272;22.658;2023-02-13T05:43:24;96414.16;;;-4.57;100.00
7480;BME280;3781;42.272;22.658;2023-02-13T05:45:51;96415.00;;;-4.52;100.00
7480;BME280;3781;42.272;22.658;2023-02-13T05:48:17;96403.16;;;-4.50;100.00
7480;BME280;3781;42.272;22.658;2023-02-13T05:50:46;96413.28;;;-4.40;100.00
7480;BME280;3781;42.272;22.658;2023-02-13T05:53:13;96414.13;;;-4.24;100.00
7480;BME280;3781;42.272;22.658;2023-02-13T05:55:40;96412.41;;;-4.16;100.00
7480;BME280;3781;42.272;22.658;2023-02-13T05:58:06;96421.69;;;-4.11;100.00
7480;BME280;3781;42.272;22.658;2023-02-13T06:00:33;96423.34;;;-4.04;100.00
7480;BME280;3781;42.272;22.658;2023-02-13T06:03:00;96414.91;;;-4.10;100.00
7480;BME280;3781;42.272;22.658;2023-02-13T06:05:27;96402.22;;;-4.10;100.00
7480;BME280;3781;42.272;22.658;2023-02-13T06:07:55;96423.19;;;-3.51;100.00
7480;BME280;3781;42.272;22.658;2023-02-13T06:10:22;96413.69;;;-3.16;100.00
7480;BME280;3781;42.272;22.658;2023-02-13T06:12:48;96419.50;;;-1.97;100.00
7480;BME280;3781;42.272;22.658;2023-02-13T06:15:15;96422.09;;;-1.28;100.00
7480;BME280;3781;42.272;22.658;2023-02-13T06:17:42;96417.50;;;-1.04;100.00
7480;BME280;3781;42.272;22.658;2023-02-13T06:20:09;96424.66;;;-1.28;100.00
7480;BME280;3781;42.272;22.658;2023-02-13T06:22:36;96420.06;;;-1.05;100.00
7480;BME280;3781;42.272;22.658;2023-02-13T06:25:05;96425.78;;;-0.35;97.88
7480;BME280;3781;42.272;22.658;2023-02-13T06:27:32;96429.47;;;0.44;95.14
7480;BME280;3781;42.272;22.658;2023-02-13T06:29:58;96431.44;;;1.50;87.65
7480;BME280;3781;42.272;22.658;2023-02-13T06:32:25;96423.31;;;1.69;80.49
7480;BME280;3781;42.272;22.658;2023-02-13T06:34:52;96430.47;;;1.91;76.87
7480;BME280;3781;42.272;22.658;2023-02-13T06:37:18;96432.72;;;1.70;77.09
7480;BME280;3781;42.272;22.658;2023-02-13T06:39:45;96437.00;;;1.68;76.74
7480;BME280;3781;42.272;22.658;2023-02-13T06:42:13;96436.97;;;2.35;73.81
7480;BME280;3781;42.272;22.658;2023-02-13T06:44:40;96448.03;;;3.00;72.30
7480;BME280;3781;42.272;22.658;2023-02-13T06:47:07;96441.19;;;3.82;68.56
7480;BME280;3781;42.272;22.658;2023-02-13T06:49:33;96452.66;;;4.97;63.47
7480;BME280;3781;42.272;22.658;2023-02-13T06:52:01;96447.31;;;5.24;61.40
7480;BME280;3781;42.272;22.658;2023-02-13T06:54:27;96446.47;;;4.54;61.01
7480;BME280;3781;42.272;22.658;2023-02-13T06:56:54;96451.19;;;3.91;62.61
7480;BME280;3781;42.272;22.658;2023-02-13T06:59:22;96449.16;;;3.47;63.71
7480;BME280;3781;42.272;22.658;2023-02-13T07:01:49;96453.25;;;3.52;64.52
7480;BME280;3781;42.272;22.658;2023-02-13T07:04:16;96448.81;;;3.02;64.38
7480;BME280;3781;42.272;22.658;2023-02-13T07:06:43;96457.19;;;3.09;65.52
7480;BME280;3781;42.272;22.658;2023-02-13T07:09:09;96453.25;;;2.66;65.44
7480;BME280;3781;42.272;22.658;2023-02-13T07:11:39;96460.88;;;2.98;65.21
7480;BME280;3781;42.272;22.658;2023-02-13T07:14:05;96464.09;;;3.07;64.80
7480;BME280;3781;42.272;22.658;2023-02-13T07:16:34;96446.50;;;2.62;65.53
7480;BME280;3781;42.272;22.658;2023-02-13T07:19:01;96458.19;;;2.72;65.11
7480;BME280;3781;42.272;22.658;2023-02-13T07:21:27;96464.09;;;3.07;64.04
7480;BME280;3781;42.272;22.658;2023-02-13T07:23:54;96435.03;;;3.04;63.31
7480;BME280;3781;42.272;22.658;2023-02-13T07:26:21;96467.75;;;3.55;62.49
7480;BME280;3781;42.272;22.658;2023-02-13T07:28:48;96468.56;;;3.83;60.34
7480;BME280;3781;42.272;22.658;2023-02-13T07:31:14;96463.53;;;3.80;60.54
7480;BME280;3781;42.272;22.658;2023-02-13T07:33:42;96468.47;;;3.86;59.67
7480;BME280;3781;42.272;22.658;2023-02-13T07:36:09;96472.53;;;4.44;59.98
7480;BME280;3781;42.272;22.658;2023-02-13T07:38:36;96472.41;;;4.96;58.12
7480;BME280;3781;42.272;22.658;2023-02-13T07:41:03;96468.47;;;5.77;55.77
7480;BME280;3781;42.272;22.658;2023-02-13T07:43:30;96467.34;;;6.48;53.86
7480;BME280;3781;42.272;22.658;2023-02-13T07:45:58;96471.72;;;5.82;54.48
7480;BME280;3781;42.272;22.658;2023-02-13T07:48:25;96472.25;;;5.24;54.32
7480;BME280;3781;42.272;22.658;2023-02-13T07:50:54;96452.31;;;5.95;54.55
7480;BME280;3781;42.272;22.658;2023-02-13T07:53:24;96469.41;;;5.98;53.23
7480;BME280;3781;42.272;22.658;2023-02-13T07:55:51;96450.38;;;6.81;51.51
7480;BME280;3781;42.272;22.658;2023-02-13T07:58:18;96462.22;;;7.80;50.15
7480;BME280;3781;42.272;22.658;2023-02-13T08:00:45;96419.56;;;7.52;48.96
7480;BME280;3781;42.272;22.658;2023-02-13T08:03:11;96458.53;;;8.72;47.25
7480;BME280;3781;42.272;22.658;2023-02-13T08:05:38;96445.22;;;10.51;44.19
7480;BME280;3781;42.272;22.658;2023-02-13T08:08:07;96439.34;;;10.18;42.85
7480;BME280;3781;42.272;22.658;2023-02-13T08:10:33;96450.88;;;11.02;42.64
7480;BME280;3781;42.272;22.658;2023-02-13T08:13:18;96440.94;;;11.22;41.43
7480;BME280;3781;42.272;22.658;2023-02-13T08:15:44;96435.97;;;11.46;41.06
7480;BME280;3781;42.272;22.658;2023-02-13T08:18:11;96438.00;;;11.83;40.31
7480;BME280;3781;42.272;22.658;2023-02-13T08:20:38;96439.34;;;10.92;40.48
7480;BME280;3781;42.272;22.658;2023-02-13T08:23:09;96440.56;;;10.86;42.10
7480;BME280;3781;42.272;22.658;2023-02-13T08:25:36;96429.50;;;10.83;41.93
7480;BME280;3781;42.272;22.658;2023-02-13T08:28:03;96439.19;;;11.23;41.72
7480;BME280;3781;42.272;22.658;2023-02-13T08:30:30;96420.88;;;10.96;40.42
7480;BME280;3781;42.272;22.658;2023-02-13T08:32:57;96436.31;;;9.01;43.43
7480;BME280;3781;42.272;22.658;2023-02-13T08:35:24;96436.81;;;9.56;43.50
7480;BME280;3781;42.272;22.658;2023-02-13T08:37:54;96427.41;;;8.57;45.23
7480;BME280;3781;42.272;22.658;2023-02-13T08:40:22;96434.88;;;8.95;45.74
7480;BME280;3781;42.272;22.658;2023-02-13T08:42:49;96434.16;;;9.09;45.22
7480;BME280;3781;42.272;22.658;2023-02-13T08:45:16;96422.19;;;8.22;45.07
7480;BME280;3781;42.272;22.658;2023-02-13T08:47:43;96435.22;;;8.55;45.86
7480;BME280;3781;42.272;22.658;2023-02-13T08:50:10;96349.47;;;9.86;43.14
7480;BME280;3781;42.272;22.658;2023-02-13T08:52:37;96425.59;;;10.90;41.27
7480;BME280;3781;42.272;22.658;2023-02-13T08:55:04;96430.78;;;11.74;39.19
7480;BME280;3781;42.272;22.658;2023-02-13T08:57:33;96428.63;;;12.07;39.14
7480;BME280;3781;42.272;22.658;2023-02-13T09:00:00;96425.25;;;11.93;38.79
7480;BME280;3781;42.272;22.658;2023-02-13T09:02:26;96432.84;;;10.85;40.46
7480;BME280;3781;42.272;22.658;2023-02-13T09:04:53;96436.41;;;12.22;38.40
7480;BME280;3781;42.272;22.658;2023-02-13T09:07:20;96431.53;;;13.81;35.34
7480;BME280;3781;42.272;22.658;2023-02-13T09:09:47;96433.81;;;12.86;36.07
7480;BME280;3781;42.272;22.658;2023-02-13T09:12:14;96432.50;;;12.54;36.78
7480;BME280;3781;42.272;22.658;2023-02-13T09:14:43;96423.66;;;12.94;36.35
7480;BME280;3781;42.272;22.658;2023-02-13T09:17:09;96424.63;;;13.18;35.95
7480;BME280;3781;42.272;22.658;2023-02-13T09:19:36;96440.22;;;13.69;35.37
7480;BME280;3781;42.272;22.658;2023-02-13T09:22:03;96397.69;;;14.03;34.49
7480;BME280;3781;42.272;22.658;2023-02-13T09:24:30;96435.03;;;12.68;36.42
7480;BME280;3781;42.272;22.658;2023-02-13T09:26:57;96414.00;;;13.21;36.08
7480;BME280;3781;42.272;22.658;2023-02-13T09:29:23;96435.44;;;14.35;34.28
7480;BME280;3781;42.272;22.658;2023-02-13T09:31:56;96418.09;;;14.21;35.05
7480;BME280;3781;42.272;22.658;2023-02-13T09:34:22;96428.81;;;14.53;34.41
7480;BME280;3781;42.272;22.658;2023-02-13T09:36:50;96415.97;;;13.79;35.77
7480;BME280;3781;42.272;22.658;2023-02-13T09:39:17;96424.56;;;15.87;32.90
7480;BME280;3781;42.272;22.658;2023-02-13T09:41:47;96415.56;;;14.09;34.30
7480;BME280;3781;42.272;22.658;2023-02-13T09:44:16;96418.13;;;14.91;34.21
7480;BME280;3781;42.272;22.658;2023-02-13T09:47:03;96411.44;;;15.98;31.95
7480;BME280;3781;42.272;22.658;2023-02-13T09:49:34;96400.91;;;16.20;32.13
7480;BME280;3781;42.272;22.658;2023-02-13T09:52:03;96399.25;;;15.65;32.07
7480;BME280;3781;42.272;22.658;2023-02-13T09:54:29;96404.34;;;15.66;32.80
7480;BME280;3781;42.272;22.658;2023-02-13T09:56:59;96402.09;;;15.51;33.18
7480;BME280;3781;42.272;22.658;2023-02-13T09:59:48;96399.47;;;15.40;32.51
7480;BME280;3781;42.272;22.658;2023-02-13T10:02:41;96391.41;;;15.97;32.10
7480;BME280;3781;42.272;22.658;2023-02-13T10:05:27;96386.06;;;16.62;30.81
7480;BME280;3781;42.272;22.658;2023-02-13T10:08:03;96392.28;;;15.86;32.06
7480;BME280;3781;42.272;22.658;2023-02-13T10:10:50;96372.06;;;17.23;30.32
7480;BME280;3781;42.272;22.658;2023-02-13T10:13:36;96376.09;;;16.44;31.21
7480;BME280;3781;42.272;22.658;2023-02-13T10:16:14;96368.97;;;14.83;32.55
7480;BME280;3781;42.272;22.658;2023-02-13T10:18:48;96359.66;;;14.46;34.22
7480;BME280;3781;42.272;22.658;2023-02-13T10:21:19;96363.47;;;14.64;34.02
7480;BME280;3781;42.272;22.658;2023-02-13T10:23:49;96354.72;;;15.32;32.22
7480;BME280;3781;42.272;22.658;2023-02-13T10:26:19;96348.94;;;13.91;34.47
7480;BME280;3781;42.272;22.658;2023-02-13T10:28:49;96347.97;;;15.94;32.11
7480;BME280;3781;42.272;22.658;2023-02-13T10:31:35;96347.13;;;15.18;32.63
7480;BME280;3781;42.272;22.658;2023-02-13T10:34:05;96337.97;;;16.20;31.22
7480;BME280;3781;42.272;22.658;2023-02-13T10:36:39;96341.91;;;16.87;30.96
7480;BME280;3781;42.272;22.658;2023-02-13T10:39:21;96335.63;;;16.37;30.29
7480;BME280;3781;42.272;22.658;2023-02-13T10:41:51;96329.47;;;16.07;31.39
7480;BME280;3781;42.272;22.658;2023-02-13T10:44:34;96323.31;;;16.38;30.65
7480;BME280;3781;42.272;22.658;2023-02-13T10:47:15;96321.03;;;16.86;30.60
7480;BME280;3781;42.272;22.658;2023-02-13T10:50:00;96317.34;;;17.28;29.68
7480;BME280;3781;42.272;22.658;2023-02-13T10:52:38;96313.75;;;17.69;29.32
7480;BME280;3781;42.272;22.658;2023-02-13T10:55:18;96290.53;;;18.12;28.39
7480;BME280;3781;42.272;22.658;2023-02-13T10:58:02;96300.59;;;18.36;27.84
7480;BME280;3781;42.272;22.658;2023-02-13T11:00:34;96314.31;;;17.32;28.83
7480;BME280;3781;42.272;22.658;2023-02-13T11:03:03;96300.63;;;18.45;27.66
7480;BME280;3781;42.272;22.658;2023-02-13T11:05:34;96297.72;;;18.20;28.15
7480;BME280;3781;42.272;22.658;2023-02-13T11:08:02;96290.94;;;18.92;27.35
7480;BME280;3781;42.272;22.658;2023-02-13T11:10:29;96293.63;;;18.83;27.88
7480;BME280;3781;42.272;22.658;2023-02-13T11:12:57;96290.91;;;18.74;27.70
7480;BME280;3781;42.272;22.658;2023-02-13T11:15:40;96283.63;;;19.95;26.27
7480;BME280;3781;42.272;22.658;2023-02-13T11:18:13;96274.69;;;19.88;25.83
7480;BME280;3781;42.272;22.658;2023-02-13T11:20:45;96265.41;;;19.29;26.02
7480;BME280;3781;42.272;22.658;2023-02-13T11:23:27;96249.78;;;19.55;25.76
7480;BME280;3781;42.272;22.658;2023-02-13T11:26:00;96264.91;;;17.66;27.63
7480;BME280;3781;42.272;22.658;2023-02-13T11:28:28;96257.63;;;18.73;26.61
7480;BME280;3781;42.272;22.658;2023-02-13T11:31:09;96254.22;;;17.39;26.92
7480;BME280;3781;42.272;22.658;2023-02-13T11:33:36;96230.06;;;16.96;28.05
7480;BME280;3781;42.272;22.658;2023-02-13T11:36:06;96243.78;;;17.09;27.75
7480;BME280;3781;42.272;22.658;2023-02-13T11:38:33;96240.56;;;16.66;27.31
7480;BME280;3781;42.272;22.658;2023-02-13T11:41:06;96239.75;;;16.24;27.27
7480;BME280;3781;42.272;22.658;2023-02-13T11:43:36;96231.66;;;18.42;24.74
7480;BME280;3781;42.272;22.658;2023-02-13T11:46:05;96203.44;;;17.29;25.56
7480;BME280;3781;42.272;22.658;2023-02-13T11:48:33;96221.78;;;17.78;26.20
7480;BME280;3781;42.272;22.658;2023-02-13T11:51:01;96220.13;;;17.87;26.46
7480;BME280;3781;42.272;22.658;2023-02-13T11:53:31;96220.94;;;17.59;26.11
7480;BME280;3781;42.272;22.658;2023-02-13T11:56:05;96207.31;;;17.25;26.25
7480;BME280;3781;42.272;22.658;2023-02-13T11:58:33;96211.78;;;18.11;25.66
7480;BME280;3781;42.272;22.658;2023-02-13T12:01:22;96195.84;;;17.35;25.73
7480;BME280;3781;42.272;22.658;2023-02-13T12:03:57;96202.59;;;18.80;24.15
7480;BME280;3781;42.272;22.658;2023-02-13T12:06:26;96201.81;;;19.87;24.21
7480;BME280;3781;42.272;22.658;2023-02-13T12:08:55;96177.63;;;19.11;23.43
7480;BME280;3781;42.272;22.658;2023-02-13T12:11:26;96181.59;;;19.42;24.12
7480;BME280;3781;42.272;22.658;2023-02-13T12:13:56;96179.59;;;16.83;26.15
7480;BME280;3781;42.272;22.658;2023-02-13T12:16:35;96138.41;;;18.17;25.57
7480;BME280;3781;42.272;22.658;2023-02-13T12:19:08;96164.91;;;18.52;24.96
7480;BME280;3781;42.272;22.658;2023-02-13T12:21:47;96152.50;;;17.51;26.86
7480;BME280;3781;42.272;22.658;2023-02-13T12:24:31;96134.09;;;18.16;26.01
7480;BME280;3781;42.272;22.658;2023-02-13T12:27:10;96154.19;;;18.27;25.73
7480;BME280;3781;42.272;22.658;2023-02-13T12:29:56;96110.56;;;17.49;26.33
7480;BME280;3781;42.272;22.658;2023-02-13T12:32:32;96151.19;;;17.07;26.62
7480;BME280;3781;42.272;22.658;2023-02-13T12:35:30;96146.97;;;16.15;28.27
7480;BME280;3781;42.272;22.658;2023-02-13T12:38:03;96144.75;;;14.74;29.69
7480;BME280;3781;42.272;22.658;2023-02-13T12:41:06;96141.66;;;14.69;29.33
7480;BME280;3781;42.272;22.658;2023-02-13T12:44:03;96137.34;;;14.79;29.87
7480;BME280;3781;42.272;22.658;2023-02-13T12:46:36;96128.50;;;14.49;30.00
7480;BME280;3781;42.272;22.658;2023-02-13T12:49:19;96134.28;;;16.20;28.13
7480;BME280;3781;42.272;22.658;2023-02-13T12:51:54;96130.38;;;16.35;28.57
7480;BME280;3781;42.272;22.658;2023-02-13T12:54:46;96123.22;;;18.01;26.93
7480;BME280;3781;42.272;22.658;2023-02-13T12:57:38;96126.44;;;18.96;25.80
7480;BME280;3781;42.272;22.658;2023-02-13T13:00:21;96116.66;;;18.25;26.50
7480;BME280;3781;42.272;22.658;2023-02-13T13:03:21;96119.16;;;17.42;27.59
7480;BME280;3781;42.272;22.658;2023-02-13T13:05:59;96103.63;;;17.29;27.56
7480;BME280;3781;42.272;22.658;2023-02-13T13:11:31;96112.28;;;18.43;25.79
7480;BME280;3781;42.272;22.658;2023-02-13T13:14:07;96100.53;;;16.67;27.01
7480;BME280;3781;42.272;22.658;2023-02-13T13:16:44;96107.47;;;16.07;26.97
7480;BME280;3781;42.272;22.658;2023-02-13T13:19:20;96092.94;;;16.24;27.66
7480;BME280;3781;42.272;22.658;2023-02-13T13:21:54;96095.41;;;16.25;27.70
7480;BME280;3781;42.272;22.658;2023-02-13T13:24:41;96095.00;;;15.49;25.76
7480;BME280;3781;42.272;22.658;2023-02-13T13:27:18;96091.16;;;15.32;26.64
7480;BME280;3781;42.272;22.658;2023-02-13T13:29:52;96087.59;;;15.33;27.28
7480;BME280;3781;42.272;22.658;2023-02-13T13:32:20;96080.13;;;15.70;27.70
7480;BME280;3781;42.272;22.658;2023-02-13T13:34:48;96055.88;;;16.08;27.50
7480;BME280;3781;42.272;22.658;2023-02-13T13:37:20;96089.91;;;16.28;26.24
7480;BME280;3781;42.272;22.658;2023-02-13T13:39:53;96081.47;;;15.64;26.26